sensor_id;sensor_type;location;lat;lon;timestamp;temperature;humidity
40816;DHT22;26535;48.788;9.214;2023-04-03T05:02:11;4.60;98.50
40816;DHT22;26535;48.788;9.214;2023-04-03T05:04:39;4.60;98.50
40816;DHT22;26535;48.788;9.214;2023-04-03T05:07:11;4.70;98.10
40816;DHT22;26535;48.788;9.214;2023-04-03T05:09:37;4.70;97.80
40816;DHT22;26535;48.788;9.214;2023-04-03T05:12:04;4.70;97.40
40816;DHT22;26535;48.788;9.214;2023-04-03T05:14:36;4.80;97.20
40816;DHT22;26535;48.788;9.214;2023-04-03T05:17:05;4.80;97.20
40816;DHT22;26535;48.788;9.214;2023-04-03T05:19:35;4.70;97.10
40816;DHT22;26535;48.788;9.214;2023-04-03T05:22:02;4.80;96.70
40816;DHT22;26535;48.788;9.214;2023-04-03T05:24:29;4.80;96.70
40816;DHT22;26535;48.788;9.214;2023-04-03T05:26:54;4.80;96.90
40816;DHT22;26535;48.788;9.214;2023-04-03T05:29:21;4.80;97.10
40816;DHT22;26535;48.788;9.214;2023-04-03T05:31:51;4.80;97.30
40816;DHT22;26535;48.788;9.214;2023-04-03T05:34:17;4.80;97.30
40816;DHT22;26535;48.788;9.214;2023-04-03T05:36:44;4.80;97.40
40816;DHT22;26535;48.788;9.214;2023-04-03T05:39:12;4.80;97.60
40816;DHT22;26535;48.788;9.214;2023-04-03T05:41:41;4.80;97.60
40816;DHT22;26535;48.788;9.214;2023-04-03T05:44:07;4.80;97.10
40816;DHT22;26535;48.788;9.214;2023-04-03T05:46:33;4.70;97.30
40816;DHT22;26535;48.788;9.214;2023-04-03T05:49:02;4.70;97.30
40816;DHT22;26535;48.788;9.214;2023-04-03T05:51:33;4.70;97.70
40816;DHT22;26535;48.788;9.214;2023-04-03T05:54:28;4.70;97.90
40816;DHT22;26535;48.788;9.214;2023-04-03T05:57:04;4.80;97.50
40816;DHT22;26535;48.788;9.214;2023-04-03T05:59:30;4.70;97.10
40816;DHT22;26535;48.788;9.214;2023-04-03T06:01:58;4.70;97.20
40816;DHT22;26535;48.788;9.214;2023-04-03T06:04:24;4.70;97.20
40816;DHT22;26535;48.788;9.214;2023-04-03T06:06:52;4.70;97.30
40816;DHT22;26535;48.788;9.214;2023-04-03T06:09:20;4.70;97.40
40816;DHT22;26535;48.788;9.214;2023-04-03T06:11:46;4.70;97.20
40816;DHT22;26535;48.788;9.214;2023-04-03T06:14:13;4.70;97.20
40816;DHT22;26535;48.788;9.214;2023-04-03T06:16:39;4.80;97.10
40816;DHT22;26535;48.788;9.214;2023-04-03T06:19:07;4.80;97.50
40816;DHT22;26535;48.788;9.214;2023-04-03T06:21:36;4.80;97.50
40816;DHT22;26535;48.788;9.214;2023-04-03T06:24:06;4.90;97.00
40816;DHT22;26535;48.788;9.214;2023-04-03T06:26:33;5.00;96.90
40816;DHT22;26535;48.788;9.214;2023-04-03T06:28:59;5.00;97.10
40816;DHT22;26535;48.788;9.214;2023-04-03T06:31:25;5.00;97.10
40816;DHT22;26535;48.788;9.214;2023-04-03T06:33:51;5.00;96.70
40816;DHT22;26535;48.788;9.214;2023-04-03T06:36:19;5.00;96.90
40816;DHT22;26535;48.788;9.214;2023-04-03T06:38:46;5.10;96.90
40816;DHT22;26535;48.788;9.214;2023-04-03T06:41:12;5.20;96.80
40816;DHT22;26535;48.788;9.214;2023-04-03T06:43:38;5.20;96.70
40816;DHT22;26535;48.788;9.214;2023-04-03T06:46:04;5.30;96.70
40816;DHT22;26535;48.788;9.214;2023-04-03T06:48:30;5.30;96.50
40816;DHT22;26535;48.788;9.214;2023-04-03T06:50:56;5.30;96.50
40816;DHT22;26535;48.788;9.214;2023-04-03T06:53:22;5.20;96.50
40816;DHT22;26535;48.788;9.214;2023-04-03T06:55:48;5.20;96.70
40816;DHT22;26535;48.788;9.214;2023-04-03T06:58:14;5.30;96.60
40816;DHT22;26535;48.788;9.214;2023-04-03T07:00:41;5.40;96.60
40816;DHT22;26535;48.788;9.214;2023-04-03T07:03:07;5.50;96.50
40816;DHT22;26535;48.788;9.214;2023-04-03T07:05:33;5.50;96.50
40816;DHT22;26535;48.788;9.214;2023-04-03T07:07:59;5.60;96.30
40816;DHT22;26535;48.788;9.214;2023-04-03T07:10:25;5.60;96.10
40816;DHT22;26535;48.788;9.214;2023-04-03T07:12:51;5.60;96.20
40816;DHT22;26535;48.788;9.214;2023-04-03T07:15:16;5.60;96.20
40816;DHT22;26535;48.788;9.214;2023-04-03T07:17:42;5.70;96.10
40816;DHT22;26535;48.788;9.214;2023-04-03T07:20:08;5.70;96.00
40816;DHT22;26535;48.788;9.214;2023-04-03T07:22:34;5.80;96.20
40816;DHT22;26535;48.788;9.214;2023-04-03T07:25:04;5.80;95.90
40816;DHT22;26535;48.788;9.214;2023-04-03T07:27:33;6.00;95.80
40816;DHT22;26535;48.788;9.214;2023-04-03T07:29:59;5.90;95.40
40816;DHT22;26535;48.788;9.214;2023-04-03T07:32:28;5.90;95.70
40816;DHT22;26535;48.788;9.214;2023-04-03T07:34:54;5.90;95.50
40816;DHT22;26535;48.788;9.214;2023-04-03T07:37:20;6.00;95.90
40816;DHT22;26535;48.788;9.214;2023-04-03T07:39:46;6.10;95.70
40816;DHT22;26535;48.788;9.214;2023-04-03T07:42:11;6.30;95.40
40816;DHT22;26535;48.788;9.214;2023-04-03T07:44:38;6.40;95.20
40816;DHT22;26535;48.788;9.214;2023-04-03T07:47:04;6.40;94.70
40816;DHT22;26535;48.788;9.214;2023-04-03T07:49:30;6.40;95.50
40816;DHT22;26535;48.788;9.214;2023-04-03T07:51:56;6.70;94.80
40816;DHT22;26535;48.788;9.214;2023-04-03T07:54:22;6.60;94.60
40816;DHT22;26535;48.788;9.214;2023-04-03T07:56:48;6.80;94.20
40816;DHT22;26535;48.788;9.214;2023-04-03T07:59:13;6.90;94.40
40816;DHT22;26535;48.788;9.214;2023-04-03T08:01:39;7.10;94.40
40816;DHT22;26535;48.788;9.214;2023-04-03T08:04:05;7.10;93.80
40816;DHT22;26535;48.788;9.214;2023-04-03T08:06:32;7.20;93.60
40816;DHT22;26535;48.788;9.214;2023-04-03T08:09:03;7.30;93.40
40816;DHT22;26535;48.788;9.214;2023-04-03T08:11:29;7.30;93.20
40816;DHT22;26535;48.788;9.214;2023-04-03T08:13:56;7.40;93.30
40816;DHT22;26535;48.788;9.214;2023-04-03T08:16:23;7.50;93.30
40816;DHT22;26535;48.788;9.214;2023-04-03T08:18:54;7.30;93.20
40816;DHT22;26535;48.788;9.214;2023-04-03T08:21:20;7.10;93.50
40816;DHT22;26535;48.788;9.214;2023-04-03T08:23:49;7.00;93.80
40816;DHT22;26535;48.788;9.214;2023-04-03T08:26:17;6.90;93.70
40816;DHT22;26535;48.788;9.214;2023-04-03T08:28:43;6.90;94.10
40816;DHT22;26535;48.788;9.214;2023-04-03T08:31:12;6.90;94.00
40816;DHT22;26535;48.788;9.214;2023-04-03T08:33:39;7.00;94.10
40816;DHT22;26535;48.788;9.214;2023-04-03T08:36:14;7.00;94.00
40816;DHT22;26535;48.788;9.214;2023-04-03T08:38:41;7.00;94.10
40816;DHT22;26535;48.788;9.214;2023-04-03T08:41:33;7.10;93.90
40816;DHT22;26535;48.788;9.214;2023-04-03T08:50:04;7.70;93.10
40816;DHT22;26535;48.788;9.214;2023-04-03T08:55:45;7.70;92.80
40816;DHT22;26535;48.788;9.214;2023-04-03T08:58:32;7.70;92.50
40816;DHT22;26535;48.788;9.214;2023-04-03T09:01:01;7.60;93.00
40816;DHT22;26535;48.788;9.214;2023-04-03T09:03:36;7.60;92.90
40816;DHT22;26535;48.788;9.214;2023-04-03T09:13:59;7.40;92.60
40816;DHT22;26535;48.788;9.214;2023-04-03T09:19:24;7.80;92.20
40816;DHT22;26535;48.788;9.214;2023-04-03T09:22:17;7.80;91.90
40816;DHT22;26535;48.788;9.214;2023-04-03T09:24:43;7.90;91.50
40816;DHT22;26535;48.788;9.214;2023-04-03T09:27:11;7.80;91.00
40816;DHT22;26535;48.788;9.214;2023-04-03T09:29:42;7.80;90.70
40816;DHT22;26535;48.788;9.214;2023-04-03T09:32:29;7.90;91.40
40816;DHT22;26535;48.788;9.214;2023-04-03T09:34:59;7.90;91.90
40816;DHT22;26535;48.788;9.214;2023-04-03T09:37:54;8.00;91.50
40816;DHT22;26535;48.788;9.214;2023-04-03T09:40:30;7.80;91.20
40816;DHT22;26535;48.788;9.214;2023-04-03T09:46:31;7.70;91.20
40816;DHT22;26535;48.788;9.214;2023-04-03T09:49:11;7.80;91.00
40816;DHT22;26535;48.788;9.214;2023-04-03T09:51:38;7.90;91.10
40816;DHT22;26535;48.788;9.214;2023-04-03T09:56:51;7.70;91.00
40816;DHT22;26535;48.788;9.214;2023-04-03T09:59:19;7.90;91.10
40816;DHT22;26535;48.788;9.214;2023-04-03T10:02:04;7.90;91.20
40816;DHT22;26535;48.788;9.214;2023-04-03T10:04:44;7.90;91.10
40816;DHT22;26535;48.788;9.214;2023-04-03T10:07:35;8.00;90.70
40816;DHT22;26535;48.788;9.214;2023-04-03T10:12:46;7.60;90.50
40816;DHT22;26535;48.788;9.214;2023-04-03T10:15:14;7.70;90.70
40816;DHT22;26535;48.788;9.214;2023-04-03T10:18:06;7.80;90.60
40816;DHT22;26535;48.788;9.214;2023-04-03T10:20:52;8.00;89.80
40816;DHT22;26535;48.788;9.214;2023-04-03T10:23:39;8.20;89.60
40816;DHT22;26535;48.788;9.214;2023-04-03T10:26:41;8.10;89.60
40816;DHT22;26535;48.788;9.214;2023-04-03T10:35:20;7.90;90.00
40816;DHT22;26535;48.788;9.214;2023-04-03T10:46:18;7.50;91.10
40816;DHT22;26535;48.788;9.214;2023-04-03T10:51:47;8.10;90.30
40816;DHT22;26535;48.788;9.214;2023-04-03T10:54:20;8.50;89.50
40816;DHT22;26535;48.788;9.214;2023-04-03T10:57:12;8.70;88.70
40816;DHT22;26535;48.788;9.214;2023-04-03T10:59:43;8.70;86.20
40816;DHT22;26535;48.788;9.214;2023-04-03T11:02:30;8.40;87.00
40816;DHT22;26535;48.788;9.214;2023-04-03T11:05:14;8.20;86.60
40816;DHT22;26535;48.788;9.214;2023-04-03T11:07:45;8.20;87.30
40816;DHT22;26535;48.788;9.214;2023-04-03T11:10:55;8.30;86.90
40816;DHT22;26535;48.788;9.214;2023-04-03T11:13:26;8.50;86.10
40816;DHT22;26535;48.788;9.214;2023-04-03T11:15:58;8.80;84.30
40816;DHT22;26535;48.788;9.214;2023-04-03T11:21:31;9.00;83.00
40816;DHT22;26535;48.788;9.214;2023-04-03T11:24:05;8.50;81.40
40816;DHT22;26535;48.788;9.214;2023-04-03T11:26:40;8.40;82.60
40816;DHT22;26535;48.788;9.214;2023-04-03T11:29:24;8.20;83.40
40816;DHT22;26535;48.788;9.214;2023-04-03T11:37:27;7.80;85.80
40816;DHT22;26535;48.788;9.214;2023-04-03T11:40:21;7.70;86.30
40816;DHT22;26535;48.788;9.214;2023-04-03T11:43:06;7.80;86.40
40816;DHT22;26535;48.788;9.214;2023-04-03T11:45:38;8.10;85.90
40816;DHT22;26535;48.788;9.214;2023-04-03T11:50:45;8.50;85.10
40816;DHT22;26535;48.788;9.214;2023-04-03T11:55:52;8.30;84.00
40816;DHT22;26535;48.788;9.214;2023-04-03T11:58:22;8.40;83.80
40816;DHT22;26535;48.788;9.214;2023-04-03T12:00:56;8.40;82.70
40816;DHT22;26535;48.788;9.214;2023-04-03T12:05:52;8.40;82.60
40816;DHT22;26535;48.788;9.214;2023-04-03T12:08:27;8.50;82.80
40816;DHT22;26535;48.788;9.214;2023-04-03T12:21:23;8.30;83.80
40816;DHT22;26535;48.788;9.214;2023-04-03T12:24:32;8.20;83.70
40816;DHT22;26535;48.788;9.214;2023-04-03T12:44:35;8.60;80.70
40816;DHT22;26535;48.788;9.214;2023-04-03T12:47:16;8.50;81.00
40816;DHT22;26535;48.788;9.214;2023-04-03T12:49:44;8.50;81.30
40816;DHT22;26535;48.788;9.214;2023-04-03T12:52:30;8.60;81.40
40816;DHT22;26535;48.788;9.214;2023-04-03T12:55:01;8.80;81.50
40816;DHT22;26535;48.788;9.214;2023-04-03T12:57:32;8.70;80.10
40816;DHT22;26535;48.788;9.214;2023-04-03T13:00:17;8.80;80.20
40816;DHT22;26535;48.788;9.214;2023-04-03T13:02:49;8.80;79.60
40816;DHT22;26535;48.788;9.214;2023-04-03T13:05:35;9.00;79.40
40816;DHT22;26535;48.788;9.214;2023-04-03T13:08:05;9.60;78.10
40816;DHT22;26535;48.788;9.214;2023-04-03T13:10:46;9.80;76.50
40816;DHT22;26535;48.788;9.214;2023-04-03T13:13:17;9.80;75.80
40816;DHT22;26535;48.788;9.214;2023-04-03T13:15:48;9.80;75.00
40816;DHT22;26535;48.788;9.214;2023-04-03T13:20:52;10.20;76.60
40816;DHT22;26535;48.788;9.214;2023-04-03T13:23:22;10.50;75.00
40816;DHT22;26535;48.788;9.214;2023-04-03T13:25:49;10.40;73.90
40816;DHT22;26535;48.788;9.214;2023-04-03T13:28:20;10.30;73.40
40816;DHT22;26535;48.788;9.214;2023-04-03T13:33:33;9.80;73.70
40816;DHT22;26535;48.788;9.214;2023-04-03T13:36:07;9.50;74.40
40816;DHT22;26535;48.788;9.214;2023-04-03T13:38:33;9.40;75.10
40816;DHT22;26535;48.788;9.214;2023-04-03T13:41:05;9.70;74.90
40816;DHT22;26535;48.788;9.214;2023-04-03T13:43:46;11.50;73.00
40816;DHT22;26535;48.788;9.214;2023-04-03T13:48:38;12.70;67.90
40816;DHT22;26535;48.788;9.214;2023-04-03T13:53:51;12.30;68.00
40816;DHT22;26535;48.788;9.214;2023-04-03T13:59:03;12.50;67.60
40816;DHT22;26535;48.788;9.214;2023-04-03T14:01:47;12.30;68.00
40816;DHT22;26535;48.788;9.214;2023-04-03T14:04:25;11.90;68.40
40816;DHT22;26535;48.788;9.214;2023-04-03T14:06:51;11.60;70.00
40816;DHT22;26535;48.788;9.214;2023-04-03T14:09:20;11.50;69.40
40816;DHT22;26535;48.788;9.214;2023-04-03T14:11:47;11.30;70.00
40816;DHT22;26535;48.788;9.214;2023-04-03T14:14:27;10.80;71.00
40816;DHT22;26535;48.788;9.214;2023-04-03T14:16:59;10.60;70.80
40816;DHT22;26535;48.788;9.214;2023-04-03T14:19:31;10.30;71.20
40816;DHT22;26535;48.788;9.214;2023-04-03T14:21:58;10.20;71.10
40816;DHT22;26535;48.788;9.214;2023-04-03T14:24:25;10.00;72.30
40816;DHT22;26535;48.788;9.214;2023-04-03T14:26:54;9.80;72.10
40816;DHT22;26535;48.788;9.214;2023-04-03T14:29:21;9.80;72.50
40816;DHT22;26535;48.788;9.214;2023-04-03T14:31:48;9.60;73.00
40816;DHT22;26535;48.788;9.214;2023-04-03T14:34:15;10.50;72.10
40816;DHT22;26535;48.788;9.214;2023-04-03T14:36:43;12.70;66.90
40816;DHT22;26535;48.788;9.214;2023-04-03T14:39:15;14.50;63.70
40816;DHT22;26535;48.788;9.214;2023-04-03T14:41:42;15.50;60.50
40816;DHT22;26535;48.788;9.214;2023-04-03T14:44:08;14.70;61.40
40816;DHT22;26535;48.788;9.214;2023-04-03T14:46:36;13.80;62.40
40816;DHT22;26535;48.788;9.214;2023-04-03T14:49:03;13.20;63.90
40816;DHT22;26535;48.788;9.214;2023-04-03T14:51:33;12.30;64.30
40816;DHT22;26535;48.788;9.214;2023-04-03T14:54:00;11.60;66.40
40816;DHT22;26535;48.788;9.214;2023-04-03T14:56:28;10.70;67.70
40816;DHT22;26535;48.788;9.214;2023-04-03T14:59:02;10.20;69.00
40816;DHT22;26535;48.788;9.214;2023-04-03T15:01:28;10.10;69.70
40816;DHT22;26535;48.788;9.214;2023-04-03T15:03:54;10.10;69.30
40816;DHT22;26535;48.788;9.214;2023-04-03T15:06:20;10.00;68.70
40816;DHT22;26535;48.788;9.214;2023-04-03T15:08:55;9.90;69.00
40816;DHT22;26535;48.788;9.214;2023-04-03T15:11:21;9.80;70.00
40816;DHT22;26535;48.788;9.214;2023-04-03T15:13:47;9.90;69.10
40816;DHT22;26535;48.788;9.214;2023-04-03T15:16:16;9.80;69.50
40816;DHT22;26535;48.788;9.214;2023-04-03T15:18:43;10.00;69.30
40816;DHT22;26535;48.788;9.214;2023-04-03T15:21:10;10.60;67.20
40816;DHT22;26535;48.788;9.214;2023-04-03T15:23:39;10.90;65.70
40816;DHT22;26535;48.788;9.214;2023-04-03T15:26:05;11.40;65.00
40816;DHT22;26535;48.788;9.214;2023-04-03T15:28:35;11.30;65.10
40816;DHT22;26535;48.788;9.214;2023-04-03T15:31:01;10.80;65.00
40816;DHT22;26535;48.788;9.214;2023-04-03T15:33:27;10.30;66.40
40816;DHT22;26535;48.788;9.214;2023-04-03T15:35:53;10.00;67.70
40816;DHT22;26535;48.788;9.214;2023-04-03T15:38:19;9.70;67.60
40816;DHT22;26535;48.788;9.214;2023-04-03T15:40:46;9.40;68.50
40816;DHT22;26535;48.788;9.214;2023-04-03T15:43:15;9.10;69.40
40816;DHT22;26535;48.788;9.214;2023-04-03T15:45:47;8.80;70.10
40816;DHT22;26535;48.788;9.214;2023-04-03T15:48:13;8.90;71.40
40816;DHT22;26535;48.788;9.214;2023-04-03T15:50:39;11.50;67.50
40816;DHT22;26535;48.788;9.214;2023-04-03T15:53:06;14.50;61.20
40816;DHT22;26535;48.788;9.214;2023-04-03T15:55:37;16.20;58.40
40816;DHT22;26535;48.788;9.214;2023-04-03T15:58:09;17.40;56.30
40816;DHT22;26535;48.788;9.214;2023-04-03T16:00:37;18.60;54.60
40816;DHT22;26535;48.788;9.214;2023-04-03T16:03:10;18.00;53.20
40816;DHT22;26535;48.788;9.214;2023-04-03T16:05:38;18.00;54.20
40816;DHT22;26535;48.788;9.214;2023-04-03T16:08:07;18.50;52.90
40816;DHT22;26535;48.788;9.214;2023-04-03T16:10:42;19.80;52.50
40816;DHT22;26535;48.788;9.214;2023-04-03T16:13:14;19.70;51.90
40816;DHT22;26535;48.788;9.214;2023-04-03T16:15:44;18.30;51.20
40816;DHT22;26535;48.788;9.214;2023-04-03T16:18:10;16.50;53.00
40816;DHT22;26535;48.788;9.214;2023-04-03T16:20:42;15.70;53.90
40816;DHT22;26535;48.788;9.214;2023-04-03T16:23:13;14.80;54.10
40816;DHT22;26535;48.788;9.214;2023-04-03T16:25:43;13.10;56.20
40816;DHT22;26535;48.788;9.214;2023-04-03T16:28:26;11.90;58.30
40816;DHT22;26535;48.788;9.214;2023-04-03T16:30:52;10.60;60.60
40816;DHT22;26535;48.788;9.214;2023-04-03T16:33:19;10.00;61.50
40816;DHT22;26535;48.788;9.214;2023-04-03T16:35:47;9.90;63.20
40816;DHT22;26535;48.788;9.214;2023-04-03T16:38:16;10.00;64.90
40816;DHT22;26535;48.788;9.214;2023-04-03T16:40:53;10.70;63.40
40816;DHT22;26535;48.788;9.214;2023-04-03T16:43:23;12.80;59.40
40816;DHT22;26535;48.788;9.214;2023-04-03T16:45:51;14.90;56.70
40816;DHT22;26535;48.788;9.214;2023-04-03T16:48:20;16.10;54.90
40816;DHT22;26535;48.788;9.214;2023-04-03T16:50:48;17.30;53.50
40816;DHT22;26535;48.788;9.214;2023-04-03T16:53:17;17.60;52.30
40816;DHT22;26535;48.788;9.214;2023-04-03T16:55:45;18.10;51.90
40816;DHT22;26535;48.788;9.214;2023-04-03T16:58:20;17.60;52.20
40816;DHT22;26535;48.788;9.214;2023-04-03T17:00:46;17.10;52.20
40816;DHT22;26535;48.788;9.214;2023-04-03T17:03:29;16.20;53.50
40816;DHT22;26535;48.788;9.214;2023-04-03T17:05:57;14.70;55.40
40816;DHT22;26535;48.788;9.214;2023-04-03T17:08:23;13.20;56.60
40816;DHT22;26535;48.788;9.214;2023-04-03T17:10:52;12.00;59.00
40816;DHT22;26535;48.788;9.214;2023-04-03T17:13:27;11.20;60.80
40816;DHT22;26535;48.788;9.214;2023-04-03T17:15:57;10.80;61.90
40816;DHT22;26535;48.788;9.214;2023-04-03T17:18:26;10.00;62.70
40816;DHT22;26535;48.788;9.214;2023-04-03T17:20:55;9.50;64.50
40816;DHT22;26535;48.788;9.214;2023-04-03T17:23:28;9.20;65.10
40816;DHT22;26535;48.788;9.214;2023-04-03T17:25:54;8.90;65.70
40816;DHT22;26535;48.788;9.214;2023-04-03T17:28:22;8.70;66.60
40816;DHT22;26535;48.788;9.214;2023-04-03T17:30:57;8.50;67.50
40816;DHT22;26535;48.788;9.214;2023-04-03T17:33:24;8.30;67.70
40816;DHT22;26535;48.788;9.214;2023-04-03T17:35:56;8.20;68.40
40816;DHT22;26535;48.788;9.214;2023-04-03T17:38:22;8.10;69.00
40816;DHT22;26535;48.788;9.214;2023-04-03T17:40:48;7.80;69.60
40816;DHT22;26535;48.788;9.214;2023-04-03T17:43:17;7.70;69.70
40816;DHT22;26535;48.788;9.214;2023-04-03T17:45:43;7.60;70.60
40816;DHT22;26535;48.788;9.214;2023-04-03T17:48:09;7.50;70.60
40816;DHT22;26535;48.788;9.214;2023-04-03T17:50:36;7.50;72.10
40816;DHT22;26535;48.788;9.214;2023-04-03T17:53:02;7.40;70.60
40816;DHT22;26535;48.788;9.214;2023-04-03T17:55:27;7.40;72.20
40816;DHT22;26535;48.788;9.214;2023-04-03T17:57:53;7.40;71.30
40816;DHT22;26535;48.788;9.214;2023-04-03T18:00:20;7.40;71.90
40816;DHT22;26535;48.788;9.214;2023-04-03T18:02:45;7.30;72.20
40816;DHT22;26535;48.788;9.214;2023-04-03T18:05:11;7.30;72.30
40816;DHT22;26535;48.788;9.214;2023-04-03T18:07:38;7.20;72.70
40816;DHT22;26535;48.788;9.214;2023-04-03T18:10:07;7.20;72.80
40816;DHT22;26535;48.788;9.214;2023-04-03T18:12:39;7.10;72.50
40816;DHT22;26535;48.788;9.214;2023-04-03T18:15:07;7.00;74.00
40816;DHT22;26535;48.788;9.214;2023-04-03T18:17:33;7.00;73.20
40816;DHT22;26535;48.788;9.214;2023-04-03T18:19:59;7.00;72.50
40816;DHT22;26535;48.788;9.214;2023-04-03T18:22:25;7.00;72.70
40816;DHT22;26535;48.788;9.214;2023-04-03T18:24:52;6.90;72.90
40816;DHT22;26535;48.788;9.214;2023-04-03T18:27:20;6.90;73.30
40816;DHT22;26535;48.788;9.214;2023-04-03T18:29:52;6.90;73.10
40816;DHT22;26535;48.788;9.214;2023-04-03T18:32:20;6.90;74.60
40816;DHT22;26535;48.788;9.214;2023-04-03T18:34:46;6.90;74.20
40816;DHT22;26535;48.788;9.214;2023-04-03T18:37:15;6.80;74.00
40816;DHT22;26535;48.788;9.214;2023-04-03T18:39:41;6.80;74.50
40816;DHT22;26535;48.788;9.214;2023-04-03T18:42:16;6.80;74.20
40816;DHT22;26535;48.788;9.214;2023-04-03T18:45:03;6.80;74.30
40816;DHT22;26535;48.788;9.214;2023-04-03T18:47:36;6.70;75.50
40816;DHT22;26535;48.788;9.214;2023-04-03T18:50:04;6.60;74.20
40816;DHT22;26535;48.788;9.214;2023-04-03T18:52:31;6.50;74.60
40816;DHT22;26535;48.788;9.214;2023-04-03T18:57:35;6.30;75.60
40816;DHT22;26535;48.788;9.214;2023-04-03T19:00:03;6.20;74.90
40816;DHT22;26535;48.788;9.214;2023-04-03T19:02:29;6.10;75.70
40816;DHT22;26535;48.788;9.214;2023-04-03T19:04:55;6.00;76.60
40816;DHT22;26535;48.788;9.214;2023-04-03T19:07:21;6.00;76.10
40816;DHT22;26535;48.788;9.214;2023-04-03T19:09:47;5.80;76.60
40816;DHT22;26535;48.788;9.214;2023-04-03T19:12:16;5.80;76.80
40816;DHT22;26535;48.788;9.214;2023-04-03T19:14:45;5.70;76.90
40816;DHT22;26535;48.788;9.214;2023-04-03T19:17:11;5.70;76.70
40816;DHT22;26535;48.788;9.214;2023-04-03T19:19:39;5.60;77.50
40816;DHT22;26535;48.788;9.214;2023-04-03T19:22:05;5.60;77.30
40816;DHT22;26535;48.788;9.214;2023-04-03T19:24:32;5.60;76.80
40816;DHT22;26535;48.788;9.214;2023-04-03T19:26:59;5.70;78.50
40816;DHT22;26535;48.788;9.214;2023-04-03T19:29:30;5.70;77.00
40816;DHT22;26535;48.788;9.214;2023-04-03T19:31:56;5.70;77.30
40816;DHT22;26535;48.788;9.214;2023-04-03T19:34:22;5.80;76.60
40816;DHT22;26535;48.788;9.214;2023-04-03T19:36:59;5.80;76.80
40816;DHT22;26535;48.788;9.214;2023-04-03T19:39:26;5.80;76.80
40816;DHT22;26535;48.788;9.214;2023-04-03T19:41:54;5.80;77.00
40816;DHT22;26535;48.788;9.214;2023-04-03T19:44:23;5.80;76.80
40816;DHT22;26535;48.788;9.214;2023-04-03T19:46:49;5.80;76.60
40816;DHT22;26535;48.788;9.214;2023-04-03T19:49:14;5.80;76.90
40816;DHT22;26535;48.788;9.214;2023-04-03T19:51:40;5.70;76.70
40816;DHT22;26535;48.788;9.214;2023-04-03T19:54:06;5.70;76.80
40816;DHT22;26535;48.788;9.214;2023-04-03T19:56:32;5.60;77.00
40816;DHT22;26535;48.788;9.214;2023-04-03T19:59:08;5.50;77.30
40816;DHT22;26535;48.788;9.214;2023-04-03T20:01:35;5.40;77.70
40816;DHT22;26535;48.788;9.214;2023-04-03T20:04:00;5.30;77.20
40816;DHT22;26535;48.788;9.214;2023-04-03T20:06:30;5.30;77.40
40816;DHT22;26535;48.788;9.214;2023-04-03T20:08:56;5.20;77.30
40816;DHT22;26535;48.788;9.214;2023-04-03T20:11:22;5.10;77.50
40816;DHT22;26535;48.788;9.214;2023-04-03T20:13:50;5.10;77.50
40816;DHT22;26535;48.788;9.214;2023-04-03T20:16:16;5.00;77.80
40816;DHT22;26535;48.788;9.214;2023-04-03T20:18:42;4.90;77.80
40816;DHT22;26535;48.788;9.214;2023-04-03T20:21:08;4.80;78.10
40816;DHT22;26535;48.788;9.214;2023-04-03T20:23:35;4.70;78.60
40816;DHT22;26535;48.788;9.214;2023-04-03T20:26:03;4.70;78.50
40816;DHT22;26535;48.788;9.214;2023-04-03T20:28:30;4.60;79.00
40816;DHT22;26535;48.788;9.214;2023-04-03T20:30:57;4.50;79.30
40816;DHT22;26535;48.788;9.214;2023-04-03T20:33:23;4.40;79.20
40816;DHT22;26535;48.788;9.214;2023-04-03T20:35:55;4.30;80.20
40816;DHT22;26535;48.788;9.214;2023-04-03T20:38:21;4.20;80.50
40816;DHT22;26535;48.788;9.214;2023-04-03T20:40:48;4.20;80.80
40816;DHT22;26535;48.788;9.214;2023-04-03T20:43:15;4.10;81.20
40816;DHT22;26535;48.788;9.214;2023-04-03T20:45:41;4.10;81.50
40816;DHT22;26535;48.788;9.214;2023-04-03T20:48:07;4.00;81.70
40816;DHT22;26535;48.788;9.214;2023-04-03T20:50:34;3.90;82.20
40816;DHT22;26535;48.788;9.214;2023-04-03T20:53:01;4.00;82.20
40816;DHT22;26535;48.788;9.214;2023-04-03T20:55:27;3.90;82.20
40816;DHT22;26535;48.788;9.214;2023-04-03T20:57:53;3.80;82.30
40816;DHT22;26535;48.788;9.214;2023-04-03T21:00:23;3.80;82.80
40816;DHT22;26535;48.788;9.214;2023-04-03T21:02:49;3.70;82.70
40816;DHT22;26535;48.788;9.214;2023-04-03T21:05:16;3.70;82.80
40816;DHT22;26535;48.788;9.214;2023-04-03T21:19:27;3.50;84.10
40816;DHT22;26535;48.788;9.214;2023-04-03T21:21:53;3.50;82.50
40816;DHT22;26535;48.788;9.214;2023-04-03T21:24:20;3.50;84.20
40816;DHT22;26535;48.788;9.214;2023-04-03T21:26:47;3.60;83.50
40816;DHT22;26535;48.788;9.214;2023-04-03T21:29:16;3.50;82.50
40816;DHT22;26535;48.788;9.214;2023-04-03T21:31:51;3.50;83.90
40816;DHT22;26535;48.788;9.214;2023-04-03T21:34:18;3.50;83.70
40816;DHT22;26535;48.788;9.214;2023-04-03T21:36:44;3.50;82.50
40816;DHT22;26535;48.788;9.214;2023-04-03T21:39:10;3.40;82.80
40816;DHT22;26535;48.788;9.214;2023-04-03T21:41:39;3.40;83.00
40816;DHT22;26535;48.788;9.214;2023-04-03T21:44:05;3.30;82.90
40816;DHT22;26535;48.788;9.214;2023-04-03T21:46:31;3.30;84.20
40816;DHT22;26535;48.788;9.214;2023-04-03T21:48:57;3.30;84.60
40816;DHT22;26535;48.788;9.214;2023-04-03T21:51:23;3.30;84.00
40816;DHT22;26535;48.788;9.214;2023-04-03T21:53:52;3.20;84.40
40816;DHT22;26535;48.788;9.214;2023-04-03T21:56:19;3.20;84.20
40816;DHT22;26535;48.788;9.214;2023-04-03T21:58:47;3.10;84.30
40816;DHT22;26535;48.788;9.214;2023-04-03T22:01:14;3.00;84.60
40816;DHT22;26535;48.788;9.214;2023-04-03T22:03:41;3.00;84.40
40816;DHT22;26535;48.788;9.214;2023-04-03T22:06:10;3.00;84.90
40816;DHT22;26535;48.788;9.214;2023-04-03T22:08:36;3.00;84.70
40816;DHT22;26535;48.788;9.214;2023-04-03T22:11:07;2.90;85.20
40816;DHT22;26535;48.788;9.214;2023-04-03T22:13:33;2.90;86.80
40816;DHT22;26535;48.788;9.214;2023-04-03T22:16:00;2.80;85.40
40816;DHT22;26535;48.788;9.214;2023-04-03T22:18:27;2.80;85.20
40816;DHT22;26535;48.788;9.214;2023-04-03T22:20:53;2.80;85.30
40816;DHT22;26535;48.788;9.214;2023-04-03T22:23:22;2.70;85.20
40816;DHT22;26535;48.788;9.214;2023-04-03T22:26:02;2.70;86.20
40816;DHT22;26535;48.788;9.214;2023-04-03T22:28:32;2.70;86.30
40816;DHT22;26535;48.788;9.214;2023-04-03T22:31:04;2.70;86.30
40816;DHT22;26535;48.788;9.214;2023-04-03T22:33:42;2.60;86.00
40816;DHT22;26535;48.788;9.214;2023-04-03T22:36:09;2.60;87.50
40816;DHT22;26535;48.788;9.214;2023-04-03T22:38:37;2.60;87.00
40816;DHT22;26535;48.788;9.214;2023-04-03T22:41:05;2.50;86.60
40816;DHT22;26535;48.788;9.214;2023-04-03T22:43:33;2.50;86.80
40816;DHT22;26535;48.788;9.214;2023-04-03T22:46:00;2.50;87.80
40816;DHT22;26535;48.788;9.214;2023-04-03T22:48:26;2.40;87.70
40816;DHT22;26535;48.788;9.214;2023-04-03T22:50:53;2.40;88.50
40816;DHT22;26535;48.788;9.214;2023-04-03T22:53:20;2.40;89.40
40816;DHT22;26535;48.788;9.214;2023-04-03T22:55:59;2.40;89.10
40816;DHT22;26535;48.788;9.214;2023-04-03T22:58:26;2.40;88.00